createdAt,value
2023-02-27T00:01:45.120Z,0.70
2023-02-27T00:04:11.743Z,0.83
2023-02-27T00:06:38.386Z,0.70
2023-02-27T00:09:05.108Z,0.70
2023-02-27T00:11:31.772Z,0.80
2023-02-27T00:13:58.519Z,0.60
2023-02-27T00:16:25.237Z,0.87
2023-02-27T00:18:51.845Z,0.70
2023-02-27T00:21:18.481Z,0.80
2023-02-27T00:23:45.092Z,0.80
2023-02-27T00:26:11.700Z,0.60
2023-02-27T00:28:38.354Z,0.60
2023-02-27T00:31:05.200Z,0.50
2023-02-27T00:33:31.907Z,0.57
2023-02-27T00:36:02.096Z,0.67
2023-02-27T00:38:28.793Z,0.60
2023-02-27T00:40:55.411Z,0.60
2023-02-27T00:43:22.035Z,0.47
2023-02-27T00:45:48.943Z,0.53
2023-02-27T00:48:15.960Z,0.60
2023-02-27T00:50:42.907Z,0.57
2023-02-27T00:53:09.493Z,0.50
2023-02-27T00:55:36.137Z,0.60
2023-02-27T00:58:02.773Z,0.67
2023-02-27T01:00:29.489Z,0.50
2023-02-27T01:02:56.140Z,0.50
2023-02-27T01:05:23.090Z,0.57
2023-02-27T01:07:49.778Z,0.53
2023-02-27T01:10:16.651Z,0.80
2023-02-27T01:12:43.497Z,0.57
2023-02-27T01:15:10.358Z,0.50
2023-02-27T01:17:36.972Z,0.47
2023-02-27T01:20:04.353Z,0.50
2023-02-27T01:22:31.105Z,0.53
2023-02-27T01:24:57.783Z,0.40
2023-02-27T01:27:24.489Z,0.50
2023-02-27T01:29:51.068Z,0.50
2023-02-27T01:32:17.798Z,0.70
2023-02-27T01:34:44.450Z,0.60
2023-02-27T01:37:11.050Z,0.60
2023-02-27T01:39:37.710Z,0.53
2023-02-27T01:42:04.364Z,0.43
2023-02-27T01:44:31.506Z,0.53
2023-02-27T01:46:58.166Z,0.73
2023-02-27T01:49:29.319Z,0.50
2023-02-27T01:52:05.659Z,0.50
2023-02-27T01:54:34.127Z,0.67
2023-02-27T01:57:02.949Z,0.67
2023-02-27T01:59:29.654Z,0.60
2023-02-27T02:01:56.610Z,0.50
2023-02-27T02:04:31.448Z,0.57
2023-02-27T02:07:18.770Z,0.50
2023-02-27T02:09:54.188Z,0.70
2023-02-27T02:12:29.934Z,0.40
2023-02-27T02:14:56.527Z,0.70
2023-02-27T02:17:45.350Z,0.53
2023-02-27T02:20:38.713Z,0.53
2023-02-27T02:23:08.508Z,0.50
2023-02-27T02:25:38.259Z,0.47
2023-02-27T02:28:39.872Z,0.37
2023-02-27T02:31:28.529Z,0.40
2023-02-27T02:34:33.384Z,0.50
2023-02-27T02:37:37.552Z,0.57
2023-02-27T02:40:06.097Z,0.60
2023-02-27T02:42:43.797Z,0.63
2023-02-27T02:45:15.580Z,0.50
2023-02-27T02:48:10.471Z,0.50
2023-02-27T02:50:59.914Z,0.37
2023-02-27T02:53:37.706Z,0.40
2023-02-27T02:56:14.197Z,0.50
2023-02-27T02:59:08.477Z,0.57
2023-02-27T03:01:41.662Z,0.70
2023-02-27T03:04:21.651Z,0.60
2023-02-27T03:06:52.451Z,0.50
2023-02-27T03:09:45.699Z,0.67
2023-02-27T03:12:14.187Z,0.57
2023-02-27T03:14:56.176Z,0.33
2023-02-27T03:17:43.423Z,0.33
2023-02-27T03:20:12.655Z,0.90
2023-02-27T03:22:40.912Z,0.50
2023-02-27T03:25:09.234Z,0.70
2023-02-27T03:27:41.711Z,0.77
2023-02-27T03:30:28.064Z,0.60
2023-02-27T03:33:01.627Z,0.70
2023-02-27T03:36:10.394Z,0.60
2023-02-27T03:38:49.309Z,0.53
2023-02-27T03:41:37.817Z,0.50
2023-02-27T03:44:06.566Z,0.60
2023-02-27T03:46:33.243Z,0.73
2023-02-27T03:48:59.856Z,0.70
2023-02-27T03:51:28.810Z,0.67
2023-02-27T03:54:03.853Z,0.40
2023-02-27T03:56:48.838Z,0.60
2023-02-27T03:59:15.526Z,0.50
2023-02-27T04:01:42.827Z,0.33
2023-02-27T04:04:14.624Z,0.50
2023-02-27T04:07:03.915Z,0.60
2023-02-27T04:10:15.777Z,0.70
2023-02-27T04:13:04.510Z,0.50
2023-02-27T04:16:01.943Z,0.50
2023-02-27T04:18:37.049Z,0.53
2023-02-27T04:21:08.002Z,0.40
2023-02-27T04:23:39.887Z,0.90
2023-02-27T04:26:15.553Z,0.50
2023-02-27T04:28:50.093Z,0.60
2023-02-27T04:31:22.545Z,0.80
2023-02-27T04:33:52.489Z,0.57
2023-02-27T04:36:32.734Z,0.60
2023-02-27T04:39:06.088Z,0.50
2023-02-27T04:41:45.069Z,0.70
2023-02-27T04:44:11.823Z,0.70
2023-02-27T04:46:39.388Z,0.50
2023-02-27T04:49:13.318Z,0.53
2023-02-27T04:51:45.289Z,0.50
2023-02-27T04:54:13.971Z,0.73
2023-02-27T04:57:02.286Z,0.60
2023-02-27T04:59:31.328Z,0.47
2023-02-27T05:02:01.093Z,0.57
2023-02-27T05:04:29.905Z,0.60
2023-02-27T05:06:56.843Z,0.60
2023-02-27T05:09:38.228Z,0.63
2023-02-27T05:12:15.320Z,0.40
2023-02-27T05:15:07.107Z,0.60
2023-02-27T05:17:40.231Z,0.60
2023-02-27T05:20:07.294Z,0.93
2023-02-27T05:22:39.768Z,0.50
2023-02-27T05:25:15.735Z,0.50
2023-02-27T05:27:44.707Z,0.57
2023-02-27T05:30:29.969Z,0.60
2023-02-27T05:33:07.638Z,0.50
2023-02-27T05:35:45.272Z,0.60
2023-02-27T05:38:17.659Z,0.60
2023-02-27T05:40:47.593Z,0.47
2023-02-27T05:43:20.460Z,0.50
2023-02-27T05:45:48.161Z,0.60
2023-02-27T05:48:19.720Z,0.50
2023-02-27T05:50:47.464Z,0.60
2023-02-27T05:53:15.277Z,0.60
2023-02-27T05:55:52.889Z,0.53
2023-02-27T05:58:26.489Z,0.50
2023-02-27T06:01:00.730Z,0.67
2023-02-27T06:03:28.411Z,0.60
2023-02-27T06:05:55.481Z,0.67
2023-02-27T06:08:22.167Z,0.77
2023-02-27T06:10:51.802Z,0.60
2023-02-27T06:13:18.631Z,0.80
2023-02-27T06:15:45.506Z,0.70
2023-02-27T06:18:12.562Z,0.63
2023-02-27T06:20:39.703Z,0.50
2023-02-27T06:23:06.627Z,1.17
2023-02-27T06:25:33.275Z,1.10
2023-02-27T06:27:59.874Z,0.90
2023-02-27T06:30:26.687Z,0.33
2023-02-27T06:32:53.310Z,0.87
2023-02-27T06:35:19.963Z,0.50
2023-02-27T06:37:46.540Z,0.50
2023-02-27T06:40:13.775Z,0.70
2023-02-27T06:42:41.156Z,1.27
2023-02-27T06:45:08.445Z,0.70
2023-02-27T06:47:35.104Z,1.17
2023-02-27T06:50:01.755Z,0.90
2023-02-27T06:52:28.405Z,0.93
2023-02-27T06:54:55.025Z,0.90
2023-02-27T06:57:21.803Z,1.00
2023-02-27T06:59:48.445Z,1.10
2023-02-27T07:02:15.486Z,0.97
2023-02-27T07:04:42.374Z,1.00
2023-02-27T07:07:32.433Z,1.03
2023-02-27T07:09:55.631Z,1.00
2023-02-27T07:12:22.240Z,1.00
2023-02-27T07:14:48.849Z,0.93
2023-02-27T07:17:15.493Z,1.07
2023-02-27T07:19:42.095Z,0.70
2023-02-27T07:22:09.620Z,1.27
2023-02-27T07:24:36.694Z,0.83
2023-02-27T07:27:03.522Z,1.17
2023-02-27T07:29:30.144Z,1.00
2023-02-27T07:31:56.889Z,0.80
2023-02-27T07:34:23.526Z,1.07
2023-02-27T07:36:50.144Z,1.00
2023-02-27T07:39:16.781Z,1.03
2023-02-27T07:41:43.344Z,0.90
2023-02-27T07:44:10.712Z,0.93
2023-02-27T07:46:37.415Z,1.10
2023-02-27T07:49:04.023Z,0.93
2023-02-27T07:51:30.778Z,1.10
2023-02-27T07:53:58.328Z,0.70
2023-02-27T07:56:26.790Z,1.27
2023-02-27T07:58:53.624Z,1.17
2023-02-27T08:01:20.280Z,0.83
2023-02-27T08:03:46.864Z,0.50
2023-02-27T08:06:13.551Z,0.70
2023-02-27T08:08:40.168Z,0.80
2023-02-27T08:11:06.768Z,1.00
2023-02-27T08:14:00.031Z,1.10
2023-02-27T08:16:21.158Z,0.70
2023-02-27T08:18:47.802Z,0.83
2023-02-27T08:21:14.528Z,0.70
2023-02-27T08:23:42.631Z,1.40
2023-02-27T08:26:09.344Z,0.57
2023-02-27T08:28:35.940Z,0.50
2023-02-27T08:31:02.603Z,0.70
2023-02-27T08:33:29.490Z,1.07
2023-02-27T08:35:56.965Z,0.63
2023-02-27T08:38:25.444Z,0.60
2023-02-27T08:40:55.656Z,0.77
2023-02-27T08:43:22.854Z,0.80
2023-02-27T08:45:50.068Z,0.70
2023-02-27T08:48:17.713Z,0.60
2023-02-27T08:50:44.700Z,0.77
2023-02-27T08:53:11.647Z,0.80
2023-02-27T08:55:38.236Z,0.87
2023-02-27T08:58:04.876Z,0.70
2023-02-27T09:00:32.455Z,0.60
2023-02-27T09:02:59.965Z,0.87
2023-02-27T09:05:26.759Z,0.80
2023-02-27T09:07:53.406Z,0.93
2023-02-27T09:10:20.013Z,0.80
2023-02-27T09:12:46.648Z,0.80
2023-02-27T09:15:13.285Z,0.77
2023-02-27T09:17:39.958Z,0.50
2023-02-27T09:20:09.192Z,0.53
2023-02-27T09:22:35.852Z,0.80
2023-02-27T09:25:02.627Z,0.97
2023-02-27T09:27:29.252Z,0.60
2023-02-27T09:29:56.361Z,0.50
2023-02-27T09:32:23.483Z,0.80
2023-02-27T09:34:50.306Z,0.60
2023-02-27T09:37:17.166Z,0.67
2023-02-27T09:39:45.981Z,0.70
2023-02-27T09:42:20.783Z,0.80
2023-02-27T09:44:52.210Z,0.60
2023-02-27T09:47:25.438Z,1.20
2023-02-27T09:49:59.434Z,0.80
2023-02-27T09:52:26.732Z,0.70
2023-02-27T09:54:55.061Z,1.00
2023-02-27T09:57:31.142Z,0.60
2023-02-27T10:00:00.856Z,0.70
2023-02-27T10:02:36.865Z,0.60
2023-02-27T10:05:13.644Z,0.60
2023-02-27T10:07:58.343Z,0.70
2023-02-27T10:11:00.789Z,0.60
2023-02-27T10:13:34.180Z,0.80
2023-02-27T10:16:01.070Z,0.80
2023-02-27T10:18:31.666Z,0.77
2023-02-27T10:21:10.693Z,0.80
2023-02-27T10:23:45.036Z,0.50
2023-02-27T10:26:18.178Z,0.73
2023-02-27T10:28:44.774Z,0.60
2023-02-27T10:31:16.147Z,0.60
2023-02-27T10:33:42.840Z,0.60
2023-02-27T10:36:18.062Z,0.70
2023-02-27T10:38:58.339Z,0.50
2023-02-27T10:41:24.974Z,0.63
2023-02-27T10:43:55.123Z,0.47
2023-02-27T10:46:30.162Z,0.80
2023-02-27T10:49:00.241Z,0.67
2023-02-27T10:51:32.152Z,0.77
2023-02-27T10:54:20.299Z,0.50
2023-02-27T10:56:57.390Z,0.57
2023-02-27T10:59:33.707Z,0.90
2023-02-27T11:02:01.810Z,0.70
2023-02-27T11:04:31.439Z,0.77
2023-02-27T11:06:58.640Z,0.63
2023-02-27T11:09:27.711Z,0.57
2023-02-27T11:11:54.459Z,0.57
2023-02-27T11:14:29.703Z,0.80
2023-02-27T11:16:58.402Z,0.70
2023-02-27T11:19:29.652Z,0.60
2023-02-27T11:22:03.372Z,0.80
2023-02-27T11:24:30.781Z,0.60
2023-02-27T11:27:05.361Z,0.60
2023-02-27T11:29:33.981Z,0.80
2023-02-27T11:32:03.873Z,0.60
2023-02-27T11:34:36.618Z,0.70
2023-02-27T11:37:07.612Z,1.00
2023-02-27T11:39:37.714Z,0.53
2023-02-27T11:42:17.352Z,0.60
2023-02-27T11:46:14.339Z,0.60
2023-02-27T11:48:22.050Z,0.50
2023-02-27T11:50:55.570Z,0.50
2023-02-27T11:53:40.886Z,0.50
2023-02-27T11:56:35.100Z,0.50
2023-02-27T11:59:22.984Z,0.50
2023-02-27T12:01:53.394Z,0.50
2023-02-27T12:04:33.386Z,0.60
2023-02-27T12:07:21.859Z,0.47
2023-02-27T12:10:08.703Z,0.40
2023-02-27T12:12:49.278Z,0.53
2023-02-27T12:15:27.984Z,0.80
2023-02-27T12:18:14.540Z,0.40
2023-02-27T12:21:01.163Z,0.50
2023-02-27T12:23:38.871Z,0.43
2023-02-27T12:26:21.896Z,0.50
2023-02-27T12:29:20.649Z,0.60
2023-02-27T12:31:48.619Z,0.60
2023-02-27T12:34:29.284Z,0.57
2023-02-27T12:37:02.086Z,0.40
2023-02-27T12:39:28.900Z,0.40
2023-02-27T12:42:21.134Z,0.87
2023-02-27T12:44:57.114Z,0.40
2023-02-27T12:47:37.173Z,0.83
2023-02-27T12:50:26.180Z,0.43
2023-02-27T12:53:21.351Z,0.50
2023-02-27T12:55:52.600Z,0.60
2023-02-27T12:58:37.977Z,0.50
2023-02-27T13:01:13.616Z,0.50
2023-02-27T13:03:45.233Z,0.50
2023-02-27T13:06:27.356Z,0.30
2023-02-27T13:09:08.999Z,0.50
2023-02-27T13:11:58.065Z,0.40
2023-02-27T13:14:32.760Z,0.50
2023-02-27T13:17:16.813Z,0.30
2023-02-27T13:19:48.445Z,0.40
2023-02-27T13:22:32.645Z,0.40
2023-02-27T13:25:00.571Z,0.50
2023-02-27T13:27:32.824Z,0.40
2023-02-27T13:30:12.985Z,0.40
2023-02-27T13:33:01.590Z,0.50
2023-02-27T13:35:36.138Z,0.40
2023-02-27T13:38:05.312Z,0.30
2023-02-27T13:40:36.464Z,0.73
2023-02-27T13:43:06.010Z,0.40
2023-02-27T13:46:01.642Z,0.70
2023-02-27T13:48:34.351Z,0.40
2023-02-27T13:51:01.083Z,0.53
2023-02-27T13:53:27.957Z,0.70
2023-02-27T13:56:01.112Z,0.50
2023-02-27T13:58:27.719Z,0.50
2023-02-27T14:00:56.175Z,0.33
2023-02-27T14:03:25.778Z,0.60
2023-02-27T14:05:53.897Z,0.50
2023-02-27T14:08:26.798Z,0.50
2023-02-27T14:11:10.523Z,0.43
2023-02-27T14:13:57.635Z,0.30
2023-02-27T14:16:43.917Z,0.50
2023-02-27T14:19:17.113Z,0.40
2023-02-27T14:22:19.394Z,0.30
2023-02-27T14:25:01.608Z,0.30
2023-02-27T14:27:44.162Z,0.40
2023-02-27T14:30:22.402Z,0.50
2023-02-27T14:32:51.452Z,0.30
2023-02-27T14:35:18.163Z,0.33
2023-02-27T14:37:44.815Z,0.40
2023-02-27T14:40:36.919Z,0.30
2023-02-27T14:43:26.123Z,0.50
2023-02-27T14:45:53.213Z,0.40
2023-02-27T14:48:26.682Z,0.40
2023-02-27T14:50:54.070Z,0.40
2023-02-27T14:53:26.982Z,0.67
2023-02-27T14:55:55.232Z,0.60
2023-02-27T14:58:22.086Z,0.67
2023-02-27T15:00:57.792Z,0.60
2023-02-27T15:03:29.054Z,0.40
2023-02-27T15:05:59.581Z,0.60
2023-02-27T15:08:31.169Z,0.50
2023-02-27T15:10:58.045Z,0.50
2023-02-27T15:13:28.380Z,0.43
2023-02-27T15:16:23.109Z,0.50
2023-02-27T15:18:51.641Z,0.63
2023-02-27T15:21:19.969Z,0.60
2023-02-27T15:23:56.622Z,0.50
2023-02-27T15:26:23.416Z,8.13
2023-02-27T15:28:50.441Z,7.23
2023-02-27T15:31:21.992Z,7.07
2023-02-27T15:33:48.856Z,6.63
2023-02-27T15:36:34.530Z,6.50
2023-02-27T15:39:23.173Z,6.33
2023-02-27T15:41:54.934Z,5.00
2023-02-27T15:44:38.997Z,4.97
2023-02-27T15:47:06.026Z,4.87
2023-02-27T15:49:32.648Z,4.50
2023-02-27T15:52:12.022Z,3.80
2023-02-27T15:54:46.400Z,3.50
2023-02-27T15:57:13.492Z,3.63
2023-02-27T15:59:41.020Z,3.60
2023-02-27T16:02:21.834Z,2.93
2023-02-27T16:04:48.469Z,2.93
2023-02-27T16:07:17.373Z,2.73
2023-02-27T16:09:46.632Z,2.53
2023-02-27T16:12:22.464Z,3.03
2023-02-27T16:14:52.616Z,3.20
2023-02-27T16:17:22.365Z,2.97
2023-02-27T16:19:48.999Z,2.43
2023-02-27T16:22:16.884Z,2.40
2023-02-27T16:24:43.690Z,3.60
2023-02-27T16:27:19.263Z,3.00
2023-02-27T16:29:45.949Z,9.20
2023-02-27T16:32:24.270Z,21.10
2023-02-27T16:34:50.974Z,16.97
2023-02-27T16:37:23.035Z,14.17
2023-02-27T16:39:54.175Z,11.53
2023-02-27T16:42:20.958Z,11.30
2023-02-27T16:44:48.425Z,9.87
2023-02-27T16:47:16.042Z,9.60
2023-02-27T16:49:44.401Z,9.63
2023-02-27T16:52:11.384Z,10.00
2023-02-27T16:54:37.989Z,10.37
2023-02-27T16:57:04.563Z,9.13
2023-02-27T16:59:33.342Z,8.43
2023-02-27T17:02:01.101Z,9.13
2023-02-27T17:04:28.136Z,7.57
2023-02-27T17:06:55.685Z,8.07
2023-02-27T17:09:22.475Z,8.50
2023-02-27T17:11:49.671Z,8.40
2023-02-27T17:14:16.379Z,7.93
2023-02-27T17:16:42.968Z,7.20
2023-02-27T17:19:09.559Z,7.37
2023-02-27T17:21:36.195Z,7.53
2023-02-27T17:24:02.904Z,7.73
2023-02-27T17:26:31.008Z,8.20
2023-02-27T17:28:58.449Z,6.80
2023-02-27T17:31:25.124Z,7.20
2023-02-27T17:33:53.400Z,6.73
2023-02-27T17:36:20.433Z,6.90
2023-02-27T17:38:48.753Z,7.07
2023-02-27T17:41:15.522Z,6.40
2023-02-27T17:43:42.205Z,7.17
2023-02-27T17:46:09.455Z,5.83
2023-02-27T17:48:37.075Z,7.37
2023-02-27T17:51:05.265Z,6.20
2023-02-27T17:53:32.147Z,6.40
2023-02-27T17:55:58.757Z,6.47
2023-02-27T17:58:25.387Z,6.23
2023-02-27T18:00:52.006Z,6.13
2023-02-27T18:03:18.606Z,5.87
2023-02-27T18:05:52.239Z,6.30
2023-02-27T18:08:19.221Z,6.47
2023-02-27T18:10:49.322Z,5.87
2023-02-27T18:13:19.556Z,5.73
2023-02-27T18:15:46.307Z,6.00
2023-02-27T18:18:13.247Z,5.60
2023-02-27T18:20:40.395Z,5.23
2023-02-27T18:23:08.577Z,5.73
2023-02-27T18:25:35.780Z,4.97
2023-02-27T18:28:02.501Z,5.40
2023-02-27T18:30:30.881Z,5.10
2023-02-27T18:32:58.059Z,5.53
2023-02-27T18:35:24.991Z,4.70
2023-02-27T18:37:51.732Z,5.40
2023-02-27T18:40:18.443Z,4.70
2023-02-27T18:42:48.381Z,4.87
2023-02-27T18:45:15.034Z,4.80
2023-02-27T18:47:41.639Z,4.63
2023-02-27T18:50:08.820Z,4.83
2023-02-27T18:52:37.232Z,4.33
2023-02-27T18:55:04.272Z,5.13
2023-02-27T18:57:30.828Z,5.23
2023-02-27T18:59:57.413Z,4.90
2023-02-27T19:02:23.989Z,4.30
2023-02-27T19:04:50.568Z,5.23
2023-02-27T19:07:17.368Z,4.83
2023-02-27T19:09:44.497Z,4.87
2023-02-27T19:12:11.145Z,4.27
2023-02-27T19:14:40.895Z,4.77
2023-02-27T19:17:07.491Z,4.40
2023-02-27T19:19:34.067Z,4.60
2023-02-27T19:22:00.691Z,4.70
2023-02-27T19:24:27.365Z,3.67
2023-02-27T19:26:54.054Z,4.00
2023-02-27T19:29:20.651Z,3.90
2023-02-27T19:31:47.415Z,3.63
2023-02-27T19:34:14.882Z,4.07
2023-02-27T19:36:41.500Z,3.50
2023-02-27T19:39:08.113Z,3.67
2023-02-27T19:41:34.823Z,3.47
2023-02-27T19:44:01.522Z,4.20
2023-02-27T19:46:30.480Z,3.80
2023-02-27T19:48:58.507Z,3.77
2023-02-27T19:51:25.183Z,4.40
2023-02-27T19:53:51.899Z,3.90
2023-02-27T19:56:20.292Z,3.83
2023-02-27T19:58:47.989Z,3.60
2023-02-27T20:01:28.388Z,3.83
2023-02-27T20:03:55.926Z,3.13
2023-02-27T20:06:23.777Z,3.77
2023-02-27T20:08:50.906Z,3.30
2023-02-27T20:11:19.655Z,3.60
2023-02-27T20:13:46.827Z,3.73
2023-02-27T20:16:15.023Z,3.43
2023-02-27T20:18:42.590Z,3.03
2023-02-27T20:21:09.174Z,3.57
2023-02-27T20:23:37.709Z,3.47
2023-02-27T20:26:13.513Z,3.30
2023-02-27T20:28:40.391Z,3.17
2023-02-27T20:31:08.500Z,3.23
2023-02-27T20:33:35.095Z,3.40
2023-02-27T20:36:08.696Z,3.40
2023-02-27T20:38:38.976Z,2.70
2023-02-27T20:41:10.327Z,3.13
2023-02-27T20:43:42.747Z,3.50
2023-02-27T20:46:11.734Z,3.00
2023-02-27T20:48:38.705Z,2.97
2023-02-27T20:51:26.251Z,3.00
2023-02-27T20:53:54.313Z,3.40
2023-02-27T20:56:22.352Z,3.10
2023-02-27T20:58:49.052Z,2.80
2023-02-27T21:01:16.108Z,3.13
2023-02-27T21:03:43.774Z,3.10
2023-02-27T21:06:11.791Z,2.93
2023-02-27T21:08:39.291Z,3.60
2023-02-27T21:11:10.104Z,3.10
2023-02-27T21:13:36.832Z,2.80
2023-02-27T21:16:07.405Z,2.80
2023-02-27T21:18:34.200Z,2.87
2023-02-27T21:21:08.321Z,2.90
2023-02-27T21:23:40.895Z,3.10
2023-02-27T21:26:09.269Z,3.00
2023-02-27T21:28:42.013Z,2.87
2023-02-27T21:31:08.705Z,2.60
2023-02-27T21:33:35.486Z,2.67
2023-02-27T21:36:02.125Z,2.77
2023-02-27T21:38:29.334Z,2.40
2023-02-27T21:40:56.808Z,2.77
2023-02-27T21:43:23.502Z,2.80
2023-02-27T21:45:51.907Z,3.00
2023-02-27T21:48:18.589Z,2.73
2023-02-27T21:50:45.149Z,2.67
2023-02-27T21:53:11.741Z,2.20
2023-02-27T21:55:38.402Z,2.27
2023-02-27T21:58:07.192Z,2.47
2023-02-27T22:00:37.152Z,2.30
2023-02-27T22:03:04.118Z,2.17
2023-02-27T22:05:30.720Z,2.30
2023-02-27T22:07:57.339Z,2.90
2023-02-27T22:10:23.919Z,2.47
2023-02-27T22:12:50.694Z,2.43
2023-02-27T22:15:17.385Z,2.40
2023-02-27T22:17:44.120Z,2.07
2023-02-27T22:20:11.527Z,2.63
2023-02-27T22:22:38.198Z,2.60
2023-02-27T22:25:05.031Z,2.20
2023-02-27T22:27:31.729Z,2.40
2023-02-27T22:29:58.453Z,1.90
2023-02-27T22:32:25.165Z,2.30
2023-02-27T22:34:51.825Z,2.60
2023-02-27T22:37:19.733Z,2.13
2023-02-27T22:39:46.318Z,2.57
2023-02-27T22:42:14.160Z,2.20
2023-02-27T22:44:40.901Z,2.37
2023-02-27T22:47:07.502Z,2.13
2023-02-27T22:49:34.065Z,1.80
2023-02-27T22:52:00.673Z,2.80
2023-02-27T22:54:27.237Z,2.30
2023-02-27T22:56:56.300Z,2.40
2023-02-27T22:59:24.240Z,2.10
2023-02-27T23:01:51.324Z,2.57
2023-02-27T23:04:18.276Z,2.07
2023-02-27T23:06:44.989Z,1.90
2023-02-27T23:09:14.504Z,2.03
2023-02-27T23:11:41.944Z,2.00
2023-02-27T23:14:08.939Z,1.73
2023-02-27T23:16:35.698Z,1.73
2023-02-27T23:19:02.519Z,2.20
2023-02-27T23:21:35.485Z,1.70
2023-02-27T23:24:06.458Z,1.93
2023-02-27T23:26:38.489Z,2.23
2023-02-27T23:29:05.140Z,2.00
2023-02-27T23:31:34.658Z,1.87
2023-02-27T23:34:01.839Z,1.93
2023-02-27T23:36:28.449Z,2.07
2023-02-27T23:38:55.051Z,1.60
2023-02-27T23:41:21.740Z,2.17
2023-02-27T23:43:51.618Z,2.00
2023-02-27T23:46:18.233Z,2.07
2023-02-27T23:48:45.005Z,2.00
2023-02-27T23:51:11.684Z,1.60
2023-02-27T23:53:40.028Z,2.07
2023-02-27T23:56:16.687Z,1.77
2023-02-27T23:58:44.086Z,1.90
